sensor_id;sensor_type;location;lat;lon;timestamp;pressure;altitude;pressure_sealevel;temperature;humidity
16595;BME280;8410;52.532;13.336;2023-12-28T00:00:55;100589.41;;;14.52;57.72
16595;BME280;8410;52.532;13.336;2023-12-28T00:03:23;100588.56;;;14.53;57.49
16595;BME280;8410;52.532;13.336;2023-12-28T00:05:51;100589.97;;;14.94;56.83
16595;BME280;8410;52.532;13.336;2023-12-28T00:08:20;100584.72;;;15.06;56.62
16595;BME280;8410;52.532;13.336;2023-12-28T00:10:47;100585.38;;;13.86;58.40
16595;BME280;8410;52.532;13.336;2023-12-28T00:13:15;100569.63;;;14.32;57.84
16595;BME280;8410;52.532;13.336;2023-12-28T00:15:42;100560.81;;;14.67;57.16
16595;BME280;8410;52.532;13.336;2023-12-28T00:18:10;100557.09;;;13.42;60.77
16595;BME280;8410;52.532;13.336;2023-12-28T00:20:38;100553.91;;;14.68;57.89
16595;BME280;8410;52.532;13.336;2023-12-28T00:23:06;100543.34;;;14.91;56.82
16595;BME280;8410;52.532;13.336;2023-12-28T00:25:37;100550.13;;;15.07;56.58
16595;BME280;8410;52.532;13.336;2023-12-28T00:28:11;100545.88;;;14.98;56.11
16595;BME280;8410;52.532;13.336;2023-12-28T00:30:38;100539.03;;;14.91;56.70
16595;BME280;8410;52.532;13.336;2023-12-28T00:33:06;100534.91;;;14.67;56.22
16595;BME280;8410;52.532;13.336;2023-12-28T00:35:34;100538.59;;;14.29;58.05
16595;BME280;8410;52.532;13.336;2023-12-28T00:38:02;100541.97;;;14.38;57.98
16595;BME280;8410;52.532;13.336;2023-12-28T00:40:29;100534.34;;;14.18;58.69
16595;BME280;8410;52.532;13.336;2023-12-28T00:42:58;100540.28;;;14.37;57.84
16595;BME280;8410;52.532;13.336;2023-12-28T00:45:25;100535.06;;;14.41;57.81
16595;BME280;8410;52.532;13.336;2023-12-28T00:47:53;100538.75;;;14.02;58.57
16595;BME280;8410;52.532;13.336;2023-12-28T00:50:23;100540.56;;;13.87;59.51
16595;BME280;8410;52.532;13.336;2023-12-28T00:52:53;100545.63;;;14.06;59.19
16595;BME280;8410;52.532;13.336;2023-12-28T00:55:21;100535.38;;;13.87;58.82
16595;BME280;8410;52.532;13.336;2023-12-28T00:57:48;100536.09;;;14.17;58.46
16595;BME280;8410;52.532;13.336;2023-12-28T01:00:17;100554.16;;;14.23;58.60
16595;BME280;8410;52.532;13.336;2023-12-28T01:02:45;100561.25;;;13.87;59.43
16595;BME280;8410;52.532;13.336;2023-12-28T01:05:13;100547.38;;;13.98;58.71
16595;BME280;8410;52.532;13.336;2023-12-28T01:07:41;100552.47;;;14.22;58.69
16595;BME280;8410;52.532;13.336;2023-12-28T01:10:08;100544.28;;;14.82;57.19
16595;BME280;8410;52.532;13.336;2023-12-28T01:12:36;100550.63;;;14.37;56.97
16595;BME280;8410;52.532;13.336;2023-12-28T01:15:04;100546.34;;;14.32;57.99
16595;BME280;8410;52.532;13.336;2023-12-28T01:17:32;100555.78;;;14.43;57.20
16595;BME280;8410;52.532;13.336;2023-12-28T01:20:00;100554.50;;;13.37;58.66
16595;BME280;8410;52.532;13.336;2023-12-28T01:22:28;100541.38;;;13.91;58.74
16595;BME280;8410;52.532;13.336;2023-12-28T01:24:55;100544.56;;;14.42;58.31
16595;BME280;8410;52.532;13.336;2023-12-28T01:27:23;100535.84;;;14.59;57.62
16595;BME280;8410;52.532;13.336;2023-12-28T01:29:50;100538.06;;;13.58;59.43
16595;BME280;8410;52.532;13.336;2023-12-28T01:32:18;100551.78;;;13.85;58.80
16595;BME280;8410;52.532;13.336;2023-12-28T01:34:46;100547.59;;;13.30;59.78
16595;BME280;8410;52.532;13.336;2023-12-28T01:37:14;100549.19;;;13.76;58.88
16595;BME280;8410;52.532;13.336;2023-12-28T01:39:41;100545.84;;;13.55;59.51
16595;BME280;8410;52.532;13.336;2023-12-28T01:42:09;100542.44;;;13.09;59.05
16595;BME280;8410;52.532;13.336;2023-12-28T01:44:36;100520.88;;;13.42;59.24
16595;BME280;8410;52.532;13.336;2023-12-28T01:47:04;100511.09;;;14.11;58.36
16595;BME280;8410;52.532;13.336;2023-12-28T01:49:32;100485.13;;;14.25;58.12
16595;BME280;8410;52.532;13.336;2023-12-28T01:52:02;100491.97;;;14.36;58.06
16595;BME280;8410;52.532;13.336;2023-12-28T01:54:30;100489.63;;;13.91;57.88
16595;BME280;8410;52.532;13.336;2023-12-28T01:56:59;100481.47;;;14.57;57.23
16595;BME280;8410;52.532;13.336;2023-12-28T01:59:27;100459.06;;;14.47;57.84
16595;BME280;8410;52.532;13.336;2023-12-28T02:01:55;100460.59;;;14.75;56.46
16595;BME280;8410;52.532;13.336;2023-12-28T02:04:22;100457.47;;;14.30;56.75
16595;BME280;8410;52.532;13.336;2023-12-28T02:06:56;100447.75;;;14.59;56.73
16595;BME280;8410;52.532;13.336;2023-12-28T02:09:26;100464.75;;;14.89;56.29
16595;BME280;8410;52.532;13.336;2023-12-28T02:11:54;100491.59;;;14.86;56.20
16595;BME280;8410;52.532;13.336;2023-12-28T02:14:22;100502.78;;;14.88;54.91
16595;BME280;8410;52.532;13.336;2023-12-28T02:16:53;100510.75;;;14.64;56.04
16595;BME280;8410;52.532;13.336;2023-12-28T02:19:28;100496.44;;;15.18;54.98
16595;BME280;8410;52.532;13.336;2023-12-28T02:21:59;100518.16;;;15.07;54.58
16595;BME280;8410;52.532;13.336;2023-12-28T02:24:28;100522.50;;;15.05;55.27
16595;BME280;8410;52.532;13.336;2023-12-28T02:26:57;100513.66;;;14.15;55.59
16595;BME280;8410;52.532;13.336;2023-12-28T02:29:24;100512.63;;;14.42;55.82
16595;BME280;8410;52.532;13.336;2023-12-28T02:31:58;100524.47;;;14.76;55.53
16595;BME280;8410;52.532;13.336;2023-12-28T02:34:34;100512.34;;;14.80;55.13
16595;BME280;8410;52.532;13.336;2023-12-28T02:37:04;100507.25;;;14.69;54.70
16595;BME280;8410;52.532;13.336;2023-12-28T02:39:32;100498.53;;;14.80;55.22
16595;BME280;8410;52.532;13.336;2023-12-28T02:42:02;100487.84;;;15.13;53.55
16595;BME280;8410;52.532;13.336;2023-12-28T02:44:29;100480.47;;;14.73;54.67
16595;BME280;8410;52.532;13.336;2023-12-28T02:46:57;100486.22;;;15.03;54.13
16595;BME280;8410;52.532;13.336;2023-12-28T02:49:24;100505.31;;;14.91;53.51
16595;BME280;8410;52.532;13.336;2023-12-28T02:51:52;100502.75;;;14.91;53.06
16595;BME280;8410;52.532;13.336;2023-12-28T02:54:19;100504.06;;;15.31;51.82
16595;BME280;8410;52.532;13.336;2023-12-28T02:56:47;100493.03;;;15.12;51.62
16595;BME280;8410;52.532;13.336;2023-12-28T02:59:16;100486.25;;;15.00;52.24
16595;BME280;8410;52.532;13.336;2023-12-28T03:01:43;100485.88;;;14.40;52.78
16595;BME280;8410;52.532;13.336;2023-12-28T03:04:11;100484.06;;;15.42;51.71
16595;BME280;8410;52.532;13.336;2023-12-28T03:06:39;100493.84;;;15.15;51.39
16595;BME280;8410;52.532;13.336;2023-12-28T03:09:07;100496.34;;;15.28;50.22
16595;BME280;8410;52.532;13.336;2023-12-28T03:11:35;100491.31;;;15.12;51.19
16595;BME280;8410;52.532;13.336;2023-12-28T03:14:02;100487.25;;;15.65;50.52
16595;BME280;8410;52.532;13.336;2023-12-28T03:16:31;100494.88;;;15.79;49.94
16595;BME280;8410;52.532;13.336;2023-12-28T03:19:00;100494.59;;;15.30;50.32
16595;BME280;8410;52.532;13.336;2023-12-28T03:21:28;100493.53;;;15.48;51.27
16595;BME280;8410;52.532;13.336;2023-12-28T03:23:55;100486.34;;;15.71;50.62
16595;BME280;8410;52.532;13.336;2023-12-28T03:26:23;100490.44;;;15.89;50.44
16595;BME280;8410;52.532;13.336;2023-12-28T03:28:50;100494.38;;;16.18;50.08
16595;BME280;8410;52.532;13.336;2023-12-28T03:31:18;100497.59;;;15.70;49.32
16595;BME280;8410;52.532;13.336;2023-12-28T03:33:47;100496.28;;;14.33;52.79
16595;BME280;8410;52.532;13.336;2023-12-28T03:36:17;100499.50;;;15.54;51.21
16595;BME280;8410;52.532;13.336;2023-12-28T03:38:45;100499.13;;;15.85;50.21
16595;BME280;8410;52.532;13.336;2023-12-28T03:41:16;100490.81;;;15.58;50.90
16595;BME280;8410;52.532;13.336;2023-12-28T03:43:43;100507.94;;;15.75;51.67
16595;BME280;8410;52.532;13.336;2023-12-28T03:46:11;100511.56;;;15.55;51.55
16595;BME280;8410;52.532;13.336;2023-12-28T03:48:39;100506.34;;;15.61;51.66
16595;BME280;8410;52.532;13.336;2023-12-28T03:51:13;100514.28;;;15.48;52.99
16595;BME280;8410;52.532;13.336;2023-12-28T03:53:41;100507.06;;;14.91;53.86
16595;BME280;8410;52.532;13.336;2023-12-28T03:56:18;100501.28;;;15.49;53.96
16595;BME280;8410;52.532;13.336;2023-12-28T03:58:45;100509.41;;;15.94;53.26
16595;BME280;8410;52.532;13.336;2023-12-28T04:01:13;100501.06;;;15.71;53.16
16595;BME280;8410;52.532;13.336;2023-12-28T04:03:40;100501.09;;;15.69;52.97
16595;BME280;8410;52.532;13.336;2023-12-28T04:06:09;100506.88;;;15.12;54.75
16595;BME280;8410;52.532;13.336;2023-12-28T04:08:37;100496.06;;;15.52;53.59
16595;BME280;8410;52.532;13.336;2023-12-28T04:11:04;100503.16;;;15.38;54.38
16595;BME280;8410;52.532;13.336;2023-12-28T04:13:32;100502.31;;;16.05;53.52
16595;BME280;8410;52.532;13.336;2023-12-28T04:15:59;100500.63;;;16.04;52.58
16595;BME280;8410;52.532;13.336;2023-12-28T04:18:27;100511.63;;;16.22;52.29
16595;BME280;8410;52.532;13.336;2023-12-28T04:20:54;100524.44;;;16.34;52.45
16595;BME280;8410;52.532;13.336;2023-12-28T04:23:23;100514.25;;;16.20;52.69
16595;BME280;8410;52.532;13.336;2023-12-28T04:25:51;100521.03;;;16.30;51.51
16595;BME280;8410;52.532;13.336;2023-12-28T04:28:18;100527.25;;;16.19;52.37
16595;BME280;8410;52.532;13.336;2023-12-28T04:30:46;100523.84;;;16.14;51.60
16595;BME280;8410;52.532;13.336;2023-12-28T04:33:16;100519.59;;;16.09;51.68
16595;BME280;8410;52.532;13.336;2023-12-28T04:35:44;100540.31;;;16.13;51.73
16595;BME280;8410;52.532;13.336;2023-12-28T04:38:12;100538.44;;;16.24;51.22
16595;BME280;8410;52.532;13.336;2023-12-28T04:40:40;100525.75;;;16.04;51.31
16595;BME280;8410;52.532;13.336;2023-12-28T04:43:08;100519.25;;;16.34;51.34
16595;BME280;8410;52.532;13.336;2023-12-28T04:45:36;100510.31;;;15.90;51.50
16595;BME280;8410;52.532;13.336;2023-12-28T04:48:04;100507.78;;;16.46;50.09
16595;BME280;8410;52.532;13.336;2023-12-28T04:50:32;100521.13;;;16.23;50.63
16595;BME280;8410;52.532;13.336;2023-12-28T04:53:03;100522.44;;;15.91;50.95
16595;BME280;8410;52.532;13.336;2023-12-28T04:55:30;100518.13;;;16.49;50.59
16595;BME280;8410;52.532;13.336;2023-12-28T04:57:59;100524.66;;;16.19;50.44
16595;BME280;8410;52.532;13.336;2023-12-28T05:00:28;100531.97;;;15.89;51.12
16595;BME280;8410;52.532;13.336;2023-12-28T05:02:55;100528.63;;;16.44;50.16
16595;BME280;8410;52.532;13.336;2023-12-28T05:05:23;100541.72;;;16.35;50.92
16595;BME280;8410;52.532;13.336;2023-12-28T05:07:50;100539.00;;;16.44;51.01
16595;BME280;8410;52.532;13.336;2023-12-28T05:10:18;100539.94;;;16.94;49.99
16595;BME280;8410;52.532;13.336;2023-12-28T05:12:45;100547.81;;;15.63;51.92
16595;BME280;8410;52.532;13.336;2023-12-28T05:15:15;100558.75;;;15.93;52.46
16595;BME280;8410;52.532;13.336;2023-12-28T05:17:44;100544.72;;;16.06;50.41
16595;BME280;8410;52.532;13.336;2023-12-28T05:20:12;100557.34;;;15.61;51.49
16595;BME280;8410;52.532;13.336;2023-12-28T05:22:39;100555.38;;;15.84;51.95
16595;BME280;8410;52.532;13.336;2023-12-28T05:25:07;100562.56;;;15.58;51.33
16595;BME280;8410;52.532;13.336;2023-12-28T05:27:34;100564.56;;;16.12;50.87
16595;BME280;8410;52.532;13.336;2023-12-28T05:30:03;100542.31;;;16.54;50.22
16595;BME280;8410;52.532;13.336;2023-12-28T05:32:32;100552.22;;;16.29;50.89
16595;BME280;8410;52.532;13.336;2023-12-28T05:34:59;100559.94;;;16.34;50.87
16595;BME280;8410;52.532;13.336;2023-12-28T05:37:27;100572.22;;;15.48;51.98
16595;BME280;8410;52.532;13.336;2023-12-28T05:39:55;100585.84;;;16.40;51.35
16595;BME280;8410;52.532;13.336;2023-12-28T05:42:24;100583.72;;;16.04;51.36
16595;BME280;8410;52.532;13.336;2023-12-28T05:44:51;100585.81;;;15.75;52.00
16595;BME280;8410;52.532;13.336;2023-12-28T05:47:19;100590.09;;;16.45;51.01
16595;BME280;8410;52.532;13.336;2023-12-28T05:49:47;100595.91;;;16.63;51.02
16595;BME280;8410;52.532;13.336;2023-12-28T05:52:15;100596.78;;;16.62;50.60
16595;BME280;8410;52.532;13.336;2023-12-28T05:54:45;100600.41;;;15.82;53.17
16595;BME280;8410;52.532;13.336;2023-12-28T05:57:14;100609.41;;;16.26;52.05
16595;BME280;8410;52.532;13.336;2023-12-28T05:59:42;100610.66;;;15.94;52.42
16595;BME280;8410;52.532;13.336;2023-12-28T06:02:09;100614.59;;;16.26;53.49
16595;BME280;8410;52.532;13.336;2023-12-28T06:04:37;100615.66;;;16.73;51.47
16595;BME280;8410;52.532;13.336;2023-12-28T06:07:06;100610.56;;;16.02;53.04
16595;BME280;8410;52.532;13.336;2023-12-28T06:09:34;100618.81;;;16.33;53.05
16595;BME280;8410;52.532;13.336;2023-12-28T06:12:03;100614.13;;;16.60;52.76
16595;BME280;8410;52.532;13.336;2023-12-28T06:14:31;100610.13;;;16.37;53.07
16595;BME280;8410;52.532;13.336;2023-12-28T06:16:58;100620.47;;;16.40;53.67
16595;BME280;8410;52.532;13.336;2023-12-28T06:19:26;100626.59;;;16.33;54.31
16595;BME280;8410;52.532;13.336;2023-12-28T06:21:53;100616.69;;;15.96;56.22
16595;BME280;8410;52.532;13.336;2023-12-28T06:24:22;100624.28;;;16.78;53.51
16595;BME280;8410;52.532;13.336;2023-12-28T06:26:50;100622.25;;;16.98;53.29
16595;BME280;8410;52.532;13.336;2023-12-28T06:29:18;100625.69;;;17.01;53.66
16595;BME280;8410;52.532;13.336;2023-12-28T06:31:45;100621.63;;;16.81;54.18
16595;BME280;8410;52.532;13.336;2023-12-28T06:34:13;100626.16;;;16.67;53.66
16595;BME280;8410;52.532;13.336;2023-12-28T06:36:41;100621.75;;;16.70;54.58
16595;BME280;8410;52.532;13.336;2023-12-28T06:39:09;100616.25;;;16.30;55.34
16595;BME280;8410;52.532;13.336;2023-12-28T06:41:38;100615.00;;;15.92;55.50
16595;BME280;8410;52.532;13.336;2023-12-28T06:44:06;100618.84;;;16.31;55.15
16595;BME280;8410;52.532;13.336;2023-12-28T06:46:34;100630.97;;;15.52;56.53
16595;BME280;8410;52.532;13.336;2023-12-28T06:49:01;100621.44;;;15.53;56.89
16595;BME280;8410;52.532;13.336;2023-12-28T06:51:32;100628.66;;;16.09;56.01
16595;BME280;8410;52.532;13.336;2023-12-28T06:54:00;100617.88;;;16.40;55.15
16595;BME280;8410;52.532;13.336;2023-12-28T06:56:27;100619.41;;;16.53;55.45
16595;BME280;8410;52.532;13.336;2023-12-28T06:58:57;100618.97;;;16.87;54.44
16595;BME280;8410;52.532;13.336;2023-12-28T07:01:24;100611.72;;;16.46;55.25
16595;BME280;8410;52.532;13.336;2023-12-28T07:03:52;100621.59;;;16.21;55.55
16595;BME280;8410;52.532;13.336;2023-12-28T07:06:20;100614.78;;;16.10;56.43
16595;BME280;8410;52.532;13.336;2023-12-28T07:08:50;100633.72;;;15.34;57.99
16595;BME280;8410;52.532;13.336;2023-12-28T07:11:17;100631.38;;;15.99;57.11
16595;BME280;8410;52.532;13.336;2023-12-28T07:13:48;100638.63;;;15.64;57.49
16595;BME280;8410;52.532;13.336;2023-12-28T07:16:19;100654.88;;;15.88;56.82
16595;BME280;8410;52.532;13.336;2023-12-28T07:18:47;100651.06;;;16.17;55.52
16595;BME280;8410;52.532;13.336;2023-12-28T07:21:24;100640.25;;;16.50;55.42
16595;BME280;8410;52.532;13.336;2023-12-28T07:23:51;100640.72;;;16.14;56.87
16595;BME280;8410;52.532;13.336;2023-12-28T07:26:21;100643.28;;;16.83;55.36
16595;BME280;8410;52.532;13.336;2023-12-28T07:28:48;100654.75;;;16.68;55.64
16595;BME280;8410;52.532;13.336;2023-12-28T07:31:24;100656.03;;;16.35;55.75
16595;BME280;8410;52.532;13.336;2023-12-28T07:33:52;100657.97;;;16.21;56.44
16595;BME280;8410;52.532;13.336;2023-12-28T07:36:20;100654.66;;;16.73;55.74
16595;BME280;8410;52.532;13.336;2023-12-28T07:38:48;100662.72;;;16.54;55.55
16595;BME280;8410;52.532;13.336;2023-12-28T07:41:15;100649.84;;;17.09;54.74
16595;BME280;8410;52.532;13.336;2023-12-28T07:43:43;100653.50;;;16.30;56.71
16595;BME280;8410;52.532;13.336;2023-12-28T07:46:10;100663.13;;;16.90;54.94
16595;BME280;8410;52.532;13.336;2023-12-28T07:48:40;100661.22;;;17.54;53.73
16595;BME280;8410;52.532;13.336;2023-12-28T07:51:08;100665.28;;;16.56;55.12
16595;BME280;8410;52.532;13.336;2023-12-28T07:53:35;100678.09;;;16.70;55.97
16595;BME280;8410;52.532;13.336;2023-12-28T07:56:03;100685.91;;;15.97;57.12
16595;BME280;8410;52.532;13.336;2023-12-28T07:58:33;100684.09;;;17.34;54.51
16595;BME280;8410;52.532;13.336;2023-12-28T08:01:00;100681.13;;;16.39;55.46
16595;BME280;8410;52.532;13.336;2023-12-28T08:03:28;100686.69;;;16.75;55.16
16595;BME280;8410;52.532;13.336;2023-12-28T08:05:57;100687.91;;;16.49;56.74
16595;BME280;8410;52.532;13.336;2023-12-28T08:08:24;100690.66;;;16.37;56.62
16595;BME280;8410;52.532;13.336;2023-12-28T08:10:52;100694.59;;;16.67;55.90
16595;BME280;8410;52.532;13.336;2023-12-28T08:13:19;100703.38;;;16.59;56.02
16595;BME280;8410;52.532;13.336;2023-12-28T08:15:47;100698.66;;;16.20;57.87
16595;BME280;8410;52.532;13.336;2023-12-28T08:18:15;100697.13;;;16.72;56.46
16595;BME280;8410;52.532;13.336;2023-12-28T08:20:43;100707.41;;;16.84;55.66
16595;BME280;8410;52.532;13.336;2023-12-28T08:23:11;100702.22;;;16.81;55.67
16595;BME280;8410;52.532;13.336;2023-12-28T08:25:44;100714.38;;;16.82;56.47
16595;BME280;8410;52.532;13.336;2023-12-28T08:28:11;100719.41;;;16.22;56.93
16595;BME280;8410;52.532;13.336;2023-12-28T08:30:39;100701.91;;;17.06;55.44
16595;BME280;8410;52.532;13.336;2023-12-28T08:33:06;100701.00;;;17.07;54.63
16595;BME280;8410;52.532;13.336;2023-12-28T08:35:34;100700.16;;;16.41;55.45
16595;BME280;8410;52.532;13.336;2023-12-28T08:38:02;100701.59;;;16.62;55.72
16595;BME280;8410;52.532;13.336;2023-12-28T08:40:31;100710.53;;;17.08;55.43
16595;BME280;8410;52.532;13.336;2023-12-28T08:42:59;100698.56;;;16.94;55.52
16595;BME280;8410;52.532;13.336;2023-12-28T08:45:26;100702.69;;;17.11;55.11
16595;BME280;8410;52.532;13.336;2023-12-28T08:47:54;100705.47;;;16.98;55.25
16595;BME280;8410;52.532;13.336;2023-12-28T08:50:22;100707.31;;;16.90;54.41
16595;BME280;8410;52.532;13.336;2023-12-28T08:52:49;100713.56;;;17.37;54.27
16595;BME280;8410;52.532;13.336;2023-12-28T08:55:17;100702.44;;;17.28;54.28
16595;BME280;8410;52.532;13.336;2023-12-28T08:57:46;100721.78;;;16.42;56.72
16595;BME280;8410;52.532;13.336;2023-12-28T09:00:14;100706.38;;;17.50;54.56
16595;BME280;8410;52.532;13.336;2023-12-28T09:02:43;100715.69;;;17.63;53.92
16595;BME280;8410;52.532;13.336;2023-12-28T09:05:10;100732.28;;;17.59;53.42
16595;BME280;8410;52.532;13.336;2023-12-28T09:07:38;100728.44;;;17.83;53.17
16595;BME280;8410;52.532;13.336;2023-12-28T09:10:09;100733.81;;;16.50;55.66
16595;BME280;8410;52.532;13.336;2023-12-28T09:12:37;100731.78;;;16.72;56.58
16595;BME280;8410;52.532;13.336;2023-12-28T09:15:07;100741.16;;;16.15;57.17
16595;BME280;8410;52.532;13.336;2023-12-28T09:17:35;100740.53;;;16.68;56.21
16595;BME280;8410;52.532;13.336;2023-12-28T09:20:03;100758.53;;;16.03;56.68
16595;BME280;8410;52.532;13.336;2023-12-28T09:22:32;100720.56;;;18.32;62.86
16595;BME280;8410;52.532;13.336;2023-12-28T09:25:00;100725.38;;;18.06;57.98
16595;BME280;8410;52.532;13.336;2023-12-28T09:27:27;100716.91;;;18.42;59.91
16595;BME280;8410;52.532;13.336;2023-12-28T09:29:55;100706.13;;;18.57;60.82
16595;BME280;8410;52.532;13.336;2023-12-28T09:32:24;100712.69;;;18.35;57.36
16595;BME280;8410;52.532;13.336;2023-12-28T09:34:52;100723.88;;;18.82;60.82
16595;BME280;8410;52.532;13.336;2023-12-28T09:37:19;100711.69;;;18.42;54.43
16595;BME280;8410;52.532;13.336;2023-12-28T09:39:47;100719.31;;;18.93;59.86
16595;BME280;8410;52.532;13.336;2023-12-28T09:42:17;100712.25;;;19.34;59.96
16595;BME280;8410;52.532;13.336;2023-12-28T09:44:48;100697.81;;;18.40;59.03
16595;BME280;8410;52.532;13.336;2023-12-28T09:47:16;100703.94;;;18.81;59.58
16595;BME280;8410;52.532;13.336;2023-12-28T09:49:45;100700.91;;;19.35;55.07
16595;BME280;8410;52.532;13.336;2023-12-28T09:52:13;100694.16;;;19.28;58.26
16595;BME280;8410;52.532;13.336;2023-12-28T09:54:40;100701.28;;;18.82;54.67
16595;BME280;8410;52.532;13.336;2023-12-28T09:57:09;100701.06;;;19.29;57.61
16595;BME280;8410;52.532;13.336;2023-12-28T09:59:37;100699.63;;;18.78;54.47
16595;BME280;8410;52.532;13.336;2023-12-28T10:02:05;100684.34;;;19.00;56.17
16595;BME280;8410;52.532;13.336;2023-12-28T10:04:33;100701.38;;;19.52;53.78
16595;BME280;8410;52.532;13.336;2023-12-28T10:07:02;100690.31;;;19.77;53.70
16595;BME280;8410;52.532;13.336;2023-12-28T10:09:29;100689.88;;;19.59;55.68
16595;BME280;8410;52.532;13.336;2023-12-28T10:11:58;100687.06;;;19.67;54.18
16595;BME280;8410;52.532;13.336;2023-12-28T10:14:25;100686.91;;;19.39;53.12
16595;BME280;8410;52.532;13.336;2023-12-28T10:16:53;100685.09;;;19.05;57.36
16595;BME280;8410;52.532;13.336;2023-12-28T10:19:21;100691.53;;;18.50;56.74
16595;BME280;8410;52.532;13.336;2023-12-28T10:21:50;100695.72;;;18.15;57.89
16595;BME280;8410;52.532;13.336;2023-12-28T10:24:19;100691.75;;;18.39;58.34
16595;BME280;8410;52.532;13.336;2023-12-28T10:26:47;100700.88;;;18.17;58.71
16595;BME280;8410;52.532;13.336;2023-12-28T10:29:15;100690.16;;;18.72;56.17
16595;BME280;8410;52.532;13.336;2023-12-28T10:31:43;100703.94;;;18.81;55.96
16595;BME280;8410;52.532;13.336;2023-12-28T10:34:11;100696.75;;;18.48;56.29
16595;BME280;8410;52.532;13.336;2023-12-28T10:36:40;100684.06;;;18.75;54.32
16595;BME280;8410;52.532;13.336;2023-12-28T10:39:09;100686.25;;;18.53;56.82
16595;BME280;8410;52.532;13.336;2023-12-28T10:41:41;100692.19;;;18.18;54.42
16595;BME280;8410;52.532;13.336;2023-12-28T10:44:15;100686.19;;;18.97;56.94
16595;BME280;8410;52.532;13.336;2023-12-28T10:46:46;100695.78;;;18.11;54.29
16595;BME280;8410;52.532;13.336;2023-12-28T10:49:16;100689.94;;;18.41;53.21
16595;BME280;8410;52.532;13.336;2023-12-28T10:51:50;100695.22;;;17.95;53.62
16595;BME280;8410;52.532;13.336;2023-12-28T10:54:27;100687.25;;;17.53;54.39
16595;BME280;8410;52.532;13.336;2023-12-28T10:57:04;100694.38;;;17.41;54.38
16595;BME280;8410;52.532;13.336;2023-12-28T10:59:40;100702.53;;;16.58;56.45
16595;BME280;8410;52.532;13.336;2023-12-28T11:02:11;100704.88;;;16.78;55.92
16595;BME280;8410;52.532;13.336;2023-12-28T11:04:46;100696.28;;;16.71;56.45
16595;BME280;8410;52.532;13.336;2023-12-28T11:07:17;100702.06;;;16.93;54.55
16595;BME280;8410;52.532;13.336;2023-12-28T11:09:45;100714.63;;;15.82;57.99
16595;BME280;8410;52.532;13.336;2023-12-28T11:12:16;100705.34;;;16.41;57.22
16595;BME280;8410;52.532;13.336;2023-12-28T11:14:47;100713.47;;;16.10;58.43
16595;BME280;8410;52.532;13.336;2023-12-28T11:17:16;100708.16;;;16.23;58.11
16595;BME280;8410;52.532;13.336;2023-12-28T11:19:44;100705.84;;;15.97;58.36
16595;BME280;8410;52.532;13.336;2023-12-28T11:22:12;100704.22;;;16.61;56.30
16595;BME280;8410;52.532;13.336;2023-12-28T11:24:41;100713.53;;;16.04;57.64
16595;BME280;8410;52.532;13.336;2023-12-28T11:27:08;100710.16;;;15.96;58.28
16595;BME280;8410;52.532;13.336;2023-12-28T11:29:38;100679.19;;;17.17;55.06
16595;BME280;8410;52.532;13.336;2023-12-28T11:32:08;100688.09;;;17.01;54.98
16595;BME280;8410;52.532;13.336;2023-12-28T11:34:36;100695.75;;;17.10;55.83
16595;BME280;8410;52.532;13.336;2023-12-28T11:37:04;100702.47;;;15.88;57.17
16595;BME280;8410;52.532;13.336;2023-12-28T11:39:35;100689.16;;;16.87;56.35
16595;BME280;8410;52.532;13.336;2023-12-28T11:42:04;100687.91;;;17.66;53.70
16595;BME280;8410;52.532;13.336;2023-12-28T11:44:38;100678.66;;;17.48;54.02
16595;BME280;8410;52.532;13.336;2023-12-28T11:47:13;100667.53;;;16.85;55.08
16595;BME280;8410;52.532;13.336;2023-12-28T11:49:41;100671.09;;;17.35;55.13
16595;BME280;8410;52.532;13.336;2023-12-28T11:52:09;100660.69;;;16.75;56.47
16595;BME280;8410;52.532;13.336;2023-12-28T11:54:38;100658.22;;;17.26;55.47
16595;BME280;8410;52.532;13.336;2023-12-28T11:57:05;100658.69;;;17.50;53.94
16595;BME280;8410;52.532;13.336;2023-12-28T11:59:33;100651.47;;;17.13;54.77
16595;BME280;8410;52.532;13.336;2023-12-28T12:02:02;100624.59;;;17.63;53.79
16595;BME280;8410;52.532;13.336;2023-12-28T12:04:34;100629.66;;;17.71;53.22
16595;BME280;8410;52.532;13.336;2023-12-28T12:07:02;100624.56;;;17.65;53.45
16595;BME280;8410;52.532;13.336;2023-12-28T12:09:30;100624.25;;;17.35;54.31
16595;BME280;8410;52.532;13.336;2023-12-28T12:12:01;100625.41;;;17.16;53.97
16595;BME280;8410;52.532;13.336;2023-12-28T12:14:29;100614.50;;;16.32;56.08
16595;BME280;8410;52.532;13.336;2023-12-28T12:16:57;100617.03;;;16.98;55.20
16595;BME280;8410;52.532;13.336;2023-12-28T12:19:26;100615.56;;;17.84;53.34
16595;BME280;8410;52.532;13.336;2023-12-28T12:21:54;100623.28;;;17.39;53.76
16595;BME280;8410;52.532;13.336;2023-12-28T12:24:23;100637.22;;;16.81;55.03
16595;BME280;8410;52.532;13.336;2023-12-28T12:26:51;100628.81;;;17.21;54.59
16595;BME280;8410;52.532;13.336;2023-12-28T12:29:19;100624.84;;;16.98;54.15
16595;BME280;8410;52.532;13.336;2023-12-28T12:31:54;100630.53;;;17.22;54.94
16595;BME280;8410;52.532;13.336;2023-12-28T12:34:23;100629.25;;;16.93;54.64
16595;BME280;8410;52.532;13.336;2023-12-28T12:36:52;100630.94;;;16.97;54.99
16595;BME280;8410;52.532;13.336;2023-12-28T12:39:22;100626.50;;;16.42;55.72
16595;BME280;8410;52.532;13.336;2023-12-28T12:41:51;100628.56;;;16.17;55.78
16595;BME280;8410;52.532;13.336;2023-12-28T12:44:19;100628.78;;;17.23;54.59
16595;BME280;8410;52.532;13.336;2023-12-28T12:46:47;100616.56;;;17.26;54.00
16595;BME280;8410;52.532;13.336;2023-12-28T12:49:15;100629.88;;;17.11;54.47
16595;BME280;8410;52.532;13.336;2023-12-28T12:51:45;100633.88;;;17.29;54.74
16595;BME280;8410;52.532;13.336;2023-12-28T12:54:16;100622.56;;;17.31;54.10
16595;BME280;8410;52.532;13.336;2023-12-28T12:56:45;100619.22;;;17.25;54.63